Time;durP1;ratioP1;P1;durP2;ratioP2;P2;SDS_P1;SDS_P2;PMS_P1;PMS_P2;Temp;Humidity;BMP_temperature;BMP_pressure;BME280_temperature;BME280_humidity;BME280_pressure;Samples;Min_cycle;Max_cycle;Signal;HPM_P1;HPM_P2
2021/06/17 00:01:50;;;;;;;6.07;3.85;;;;;;;21.95;59.32;100066.44;4416005;32;20124;-88
2021/06/17 00:04:16;;;;;;;6.53;4.87;;;;;;;21.96;59.07;100068.00;4417987;32;20053;-90
2021/06/17 00:06:42;;;;;;;6.80;4.25;;;;;;;21.95;59.00;100077.91;4418576;32;20093;-90
2021/06/17 00:09:08;;;;;;;4.93;3.75;;;;;;;21.91;58.94;100077.44;4419027;32;20068;-92
2021/06/17 00:11:35;;;;;;;4.47;3.55;;;;;;;21.93;59.14;100071.16;4419116;32;20034;-90
2021/06/17 00:14:01;;;;;;;5.68;3.10;;;;;;;21.96;58.76;100070.87;4419001;32;20110;-89
2021/06/17 00:16:27;;;;;;;5.40;3.70;;;;;;;22.01;58.53;100086.47;4415929;32;20034;-89
2021/06/17 00:18:53;;;;;;;6.70;3.33;;;;;;;21.98;58.67;100076.84;4416675;32;20120;-89
2021/06/17 00:21:19;;;;;;;7.53;3.30;;;;;;;21.96;58.67;100078.69;4417303;32;20098;-88
2021/06/17 00:23:45;;;;;;;5.18;3.20;;;;;;;21.84;58.75;100074.37;4417823;32;20089;-88
2021/06/17 00:26:11;;;;;;;3.58;2.72;;;;;;;21.83;58.58;100064.19;4417461;32;20045;-91
2021/06/17 00:28:37;;;;;;;5.43;2.15;;;;;;;21.68;59.04;100056.75;4413982;32;20069;-91
2021/06/17 00:31:03;;;;;;;3.37;2.30;;;;;;;21.50;59.49;100060.25;4414195;32;20368;-90
2021/06/17 00:33:29;;;;;;;2.58;2.10;;;;;;;21.53;58.96;100049.81;4414102;32;20029;-90
2021/06/17 00:35:55;;;;;;;3.10;2.25;;;;;;;21.42;59.22;100052.75;4416276;32;20083;-89
2021/06/17 00:38:21;;;;;;;2.55;1.70;;;;;;;21.41;59.44;100051.19;4414959;32;20093;-89
2021/06/17 00:40:47;;;;;;;2.15;1.80;;;;;;;21.36;59.56;100052.78;4413419;32;20069;-89
2021/06/17 00:43:12;;;;;;;2.97;1.90;;;;;;;21.33;59.46;100064.50;4419125;32;20077;-90
2021/06/17 00:45:45;;;;;;;1.90;1.60;;;;;;;21.21;59.38;100055.22;4417958;32;20072;-89
2021/06/17 00:48:12;;;;;;;2.10;1.52;;;;;;;21.18;59.53;100044.84;4415717;32;20113;-91
2021/06/17 00:50:42;;;;;;;1.67;1.35;;;;;;;21.18;59.15;100053.41;4415801;32;20085;-89
2021/06/17 00:53:10;;;;;;;3.90;1.62;;;;;;;21.22;58.99;100050.25;4416849;32;20186;-90
2021/06/17 00:55:38;;;;;;;1.80;1.50;;;;;;;21.11;59.08;100047.47;4416486;32;20050;-89
2021/06/17 00:58:04;;;;;;;1.70;1.30;;;;;;;21.10;59.05;100035.25;4415100;32;20046;-90
2021/06/17 01:00:30;;;;;;;2.65;1.27;;;;;;;21.06;59.09;100031.88;4415220;32;20164;-90
2021/06/17 01:02:56;;;;;;;1.05;0.90;;;;;;;21.06;58.72;100028.25;4416411;32;20049;-90
2021/06/17 01:05:23;;;;;;;1.35;1.00;;;;;;;20.84;59.29;100036.91;4417363;32;20128;-89
2021/06/17 01:13:55;;;;;;;0.82;0.70;;;;;;;21.52;57.49;100046.19;4435027;31;666287;-74
2021/06/17 01:19:01;;;;;;;1.90;0.80;;;;;;;21.65;56.77;100054.94;4433759;31;678044;-74
2021/06/17 01:30:04;;;;;;;5.62;0.80;;;;;;;21.65;57.08;100034.88;4439187;31;675995;-74
2021/06/17 01:32:32;;;;;;;3.40;1.83;;;;;;;21.65;57.08;100034.88;4449514;32;20076;-76
2021/06/17 01:34:58;;;;;;;8.40;2.30;;;;;;;21.01;59.91;100034.75;4452913;32;20283;-75
2021/06/17 01:37:28;;;;;;;7.47;2.55;;;;;;;20.79;60.51;100031.97;4448300;32;20073;-75
2021/06/17 01:39:56;;;;;;;2.78;1.10;;;;;;;20.55;61.45;100023.22;4452233;32;20071;-73
2021/06/17 01:42:24;;;;;;;5.25;2.33;;;;;;;20.39;61.76;100029.75;4453742;32;20058;-74
2021/06/17 01:44:54;;;;;;;4.85;2.40;;;;;;;20.13;63.99;100035.78;4450127;32;20068;-75
2021/06/17 01:47:20;;;;;;;3.05;1.55;;;;;;;20.08;63.27;100030.03;4456013;32;20097;-75
2021/06/17 01:49:47;;;;;;;2.37;1.20;;;;;;;19.98;62.91;100031.62;4451540;32;20121;-74
2021/06/17 01:52:13;;;;;;;1.33;1.20;;;;;;;19.80;64.31;100030.06;4451587;32;20077;-75
2021/06/17 01:54:41;;;;;;;2.95;1.15;;;;;;;19.76;65.14;100035.25;4455328;32;20045;-73
2021/06/17 01:57:08;;;;;;;2.58;1.05;;;;;;;19.75;65.67;100028.75;4452512;32;20443;-73
2021/06/17 01:59:35;;;;;;;3.05;1.15;;;;;;;19.76;65.65;100036.03;4453072;32;20045;-74
2021/06/17 02:02:01;;;;;;;5.07;1.10;;;;;;;19.75;65.16;100025.12;4441818;32;20025;-75
2021/06/17 02:04:29;;;;;;;4.07;1.20;;;;;;;19.61;65.69;100014.75;4435736;32;20066;-74
2021/06/17 02:06:57;;;;;;;5.18;1.62;;;;;;;19.55;64.75;100017.59;4437007;32;20327;-74
2021/06/17 02:09:25;;;;;;;5.03;1.65;;;;;;;19.48;65.75;100012.41;4433340;32;20057;-73
2021/06/17 02:11:52;;;;;;;3.28;1.30;;;;;;;19.37;67.31;100011.59;4435112;32;20078;-74
2021/06/17 02:14:18;;;;;;;6.62;1.77;;;;;;;19.39;66.92;100000.47;4436918;32;20056;-75
2021/06/17 02:16:47;;;;;;;2.60;1.12;;;;;;;19.30;67.54;100000.72;4436007;32;20480;-73
2021/06/17 02:19:16;;;;;;;1.98;1.02;;;;;;;19.25;68.23;100004.28;4435985;32;20612;-74
2021/06/17 02:21:45;;;;;;;2.92;1.33;;;;;;;19.23;67.84;100012.56;4435898;32;20755;-73
2021/06/17 02:24:12;;;;;;;6.10;1.50;;;;;;;19.22;67.36;100016.72;4436314;32;20059;-74
2021/06/17 02:26:41;;;;;;;6.40;1.45;;;;;;;19.15;68.30;100003.75;4436368;32;20092;-72
2021/06/17 02:29:10;;;;;;;5.78;1.55;;;;;;;19.13;66.24;100006.34;4437264;32;20141;-75
2021/06/17 02:31:42;;;;;;;6.43;1.75;;;;;;;19.13;66.99;100023.47;4439243;32;20075;-74
2021/06/17 02:34:09;;;;;;;3.97;1.37;;;;;;;19.13;67.27;100019.81;4438766;32;20068;-73
2021/06/17 02:36:37;;;;;;;3.17;1.40;;;;;;;19.14;66.12;100007.09;4431386;32;20046;-74
2021/06/17 02:39:06;;;;;;;2.90;1.37;;;;;;;19.13;66.11;100011.25;4433182;32;20119;-73
2021/06/17 02:41:33;;;;;;;5.75;1.33;;;;;;;19.15;66.50;100017.25;4426778;32;20073;-75
2021/06/17 02:44:00;;;;;;;3.47;1.30;;;;;;;19.10;66.00;100024.50;4420424;32;20030;-73
2021/06/17 02:46:26;;;;;;;3.85;1.37;;;;;;;19.11;65.65;100034.59;4425265;32;20143;-75
2021/06/17 02:48:53;;;;;;;2.95;1.20;;;;;;;19.10;65.89;100027.34;4427577;32;20038;-75
2021/06/17 02:51:20;;;;;;;3.30;1.15;;;;;;;19.14;66.71;100027.88;4427790;32;20447;-74
2021/06/17 02:53:45;;;;;;;4.57;1.37;;;;;;;19.12;66.25;100039.00;4425740;32;20053;-75
2021/06/17 02:56:16;;;;;;;5.82;1.70;;;;;;;19.09;65.85;100042.88;4426725;32;20115;-75
2021/06/17 03:01:52;;;;;;;4.60;1.30;;;;;;;19.19;65.74;100040.59;4425378;31;681002;-74
2021/06/17 03:04:27;;;;;;;4.80;1.40;;;;;;;19.19;65.46;100040.59;4436714;32;20381;-74
2021/06/17 03:06:55;;;;;;;4.05;1.65;;;;;;;19.20;65.59;100040.06;4441699;32;20104;-74
2021/06/17 03:09:26;;;;;;;3.50;1.37;;;;;;;19.20;65.82;100042.12;4440255;32;20122;-74
2021/06/17 03:11:54;;;;;;;2.22;1.10;;;;;;;19.07;64.45;100042.62;4438623;32;20046;-75
2021/06/17 03:14:24;;;;;;;6.10;1.30;;;;;;;19.03;64.06;100036.41;4452044;32;20411;-75
2021/06/17 03:16:55;;;;;;;7.32;1.58;;;;;;;19.05;62.95;100056.63;4440934;32;20105;-74
2021/06/17 03:19:22;;;;;;;4.50;1.45;;;;;;;18.95;64.35;100058.13;4438187;32;20049;-74
2021/06/17 03:21:53;;;;;;;5.30;1.20;;;;;;;18.93;63.94;100063.56;4440158;32;20101;-74
2021/06/17 03:24:25;;;;;;;3.10;1.40;;;;;;;18.78;64.32;100071.53;4440781;32;20071;-73
2021/06/17 03:26:54;;;;;;;5.72;1.60;;;;;;;18.67;65.45;100065.00;4440827;32;20093;-73
2021/06/17 03:29:24;;;;;;;4.40;1.70;;;;;;;18.67;66.44;100065.00;4440506;32;20455;-73
2021/06/17 03:31:50;;;;;;;4.35;1.10;;;;;;;18.66;66.35;100058.53;4437209;32;20077;-73
2021/06/17 03:34:17;;;;;;;4.97;1.75;;;;;;;18.61;65.44;100053.56;4440663;32;20094;-74
2021/06/17 03:36:44;;;;;;;6.22;1.60;;;;;;;18.60;66.10;100060.56;4441705;32;20061;-73
2021/06/17 03:39:10;;;;;;;5.45;1.83;;;;;;;18.57;65.82;100072.19;4437786;32;20795;-73
2021/06/17 03:41:37;;;;;;;5.47;1.37;;;;;;;18.55;66.81;100064.16;4439590;32;20575;-73
2021/06/17 03:44:04;;;;;;;4.30;1.60;;;;;;;18.51;67.77;100046.53;4441684;32;20072;-73
2021/06/17 03:46:31;;;;;;;4.43;1.40;;;;;;;18.46;67.28;100052.97;4440326;32;20046;-72
2021/06/17 03:48:57;;;;;;;5.12;1.52;;;;;;;18.46;67.75;100057.87;4439929;32;20089;-72
2021/06/17 03:51:25;;;;;;;4.65;1.40;;;;;;;18.47;67.18;100056.63;4437324;32;20377;-73
2021/06/17 03:53:52;;;;;;;6.00;1.60;;;;;;;18.32;67.44;100053.13;4439896;32;20103;-74
2021/06/17 03:56:19;;;;;;;3.58;1.40;;;;;;;18.25;68.32;100047.91;4441139;32;20070;-73
2021/06/17 03:58:48;;;;;;;5.40;1.65;;;;;;;18.16;67.44;100056.63;4438854;32;20081;-72
2021/06/17 04:01:14;;;;;;;5.90;1.42;;;;;;;17.99;67.48;100058.56;4438710;32;20412;-72
2021/06/17 04:03:41;;;;;;;8.43;1.75;;;;;;;17.89;68.33;100050.22;4440161;32;20341;-71
2021/06/17 04:06:11;;;;;;;3.20;1.30;;;;;;;17.83;69.75;100049.38;4439299;32;20061;-73
2021/06/17 04:08:51;;;;;;;3.12;1.65;;;;;;;17.68;68.11;100048.72;4437329;32;20057;-72
2021/06/17 04:11:20;;;;;;;5.53;1.65;;;;;;;17.65;69.96;100055.44;4433780;32;20456;-73
2021/06/17 04:13:48;;;;;;;6.30;1.80;;;;;;;17.63;70.07;100052.31;4429258;32;20068;-73
2021/06/17 04:16:18;;;;;;;6.45;1.80;;;;;;;17.71;69.84;100044.88;4431635;32;20064;-74
2021/06/17 04:18:45;;;;;;;6.85;2.03;;;;;;;17.70;70.75;100051.06;4429749;32;20625;-74
2021/06/17 04:21:12;;;;;;;8.55;1.98;;;;;;;17.71;71.10;100044.88;4426283;32;20041;-75
2021/06/17 04:23:40;;;;;;;7.45;1.90;;;;;;;17.73;70.80;100039.47;4431368;32;20063;-74
2021/06/17 04:26:07;;;;;;;10.23;1.75;;;;;;;17.74;72.50;100034.56;4426968;32;20068;-74
2021/06/17 04:28:33;;;;;;;5.03;1.83;;;;;;;17.76;72.22;100035.62;4427487;32;20078;-75
2021/06/17 04:31:01;;;;;;;7.60;2.15;;;;;;;17.77;72.73;100033.56;4425406;32;20048;-75
2021/06/17 04:33:28;;;;;;;7.15;2.15;;;;;;;17.75;70.75;100036.91;4427610;32;20068;-75
2021/06/17 04:35:59;;;;;;;6.82;2.28;;;;;;;17.83;71.21;100040.84;4427974;32;20060;-74
2021/06/17 04:38:25;;;;;;;5.97;1.90;;;;;;;17.76;70.77;100060.44;4428583;32;20096;-75
2021/06/17 04:40:52;;;;;;;4.55;1.50;;;;;;;17.67;69.47;100069.16;4424764;32;20493;-74
2021/06/17 04:43:21;;;;;;;5.43;2.20;;;;;;;17.57;69.55;100077.09;4427331;32;20088;-74
2021/06/17 04:45:51;;;;;;;6.60;2.00;;;;;;;17.44;70.78;100062.50;4429117;32;20212;-74
2021/06/17 04:48:21;;;;;;;6.53;2.28;;;;;;;17.47;70.55;100069.22;4431583;32;20573;-74
2021/06/17 04:50:47;;;;;;;11.40;2.42;;;;;;;17.46;73.87;100073.38;4427506;32;20076;-74
2021/06/17 04:53:16;;;;;;;5.80;1.92;;;;;;;17.50;72.80;100071.06;4425874;32;20037;-74
2021/06/17 04:55:47;;;;;;;12.35;2.62;;;;;;;17.57;73.16;100079.94;4428241;32;20103;-73
2021/06/17 04:58:12;;;;;;;4.72;2.00;;;;;;;17.59;72.65;100076.59;4428347;32;20049;-74
2021/06/17 05:00:39;;;;;;;7.37;2.67;;;;;;;17.63;73.15;100080.78;4425868;32;20085;-74
2021/06/17 05:03:05;;;;;;;9.38;2.08;;;;;;;17.51;71.58;100078.31;4427865;32;20075;-74
2021/06/17 05:05:31;;;;;;;7.62;2.17;;;;;;;17.52;71.86;100077.81;4427918;32;20084;-75
2021/06/17 05:10:50;;;;;;;;;;;;;;;17.57;73.06;100071.41;4428444;32;20077;-74
2021/06/17 05:15:59;;;;;;;7.50;2.30;;;;;;;17.99;71.55;100056.50;4437601;31;687832;-74
2021/06/17 05:18:27;;;;;;;5.97;1.98;;;;;;;17.99;71.55;100056.50;4449377;32;20037;-75
2021/06/17 05:20:54;;;;;;;6.05;2.05;;;;;;;17.65;71.29;100058.28;4449004;32;20405;-73
2021/06/17 05:23:21;;;;;;;5.55;1.95;;;;;;;17.69;72.07;100050.31;4447766;32;20049;-73
2021/06/17 05:25:50;;;;;;;8.75;2.50;;;;;;;17.73;72.22;100056.56;4448675;32;20117;-73
2021/06/17 05:28:18;;;;;;;8.18;2.35;;;;;;;17.74;72.15;100054.50;4449231;32;20115;-73
2021/06/17 05:30:45;;;;;;;10.30;2.35;;;;;;;17.80;71.82;100053.25;4446909;32;20411;-73
2021/06/17 05:33:11;;;;;;;6.37;2.00;;;;;;;17.74;69.35;100058.09;4448156;32;20115;-74
2021/06/17 05:35:38;;;;;;;7.47;1.85;;;;;;;17.80;71.10;100066.72;4450412;32;20030;-74
2021/06/17 05:38:05;;;;;;;10.20;2.35;;;;;;;17.91;71.12;100061.09;4445936;32;20392;-74
2021/06/17 05:40:32;;;;;;;10.18;2.37;;;;;;;18.01;71.62;100059.62;4449353;32;20064;-74
2021/06/17 05:42:58;;;;;;;4.75;2.37;;;;;;;18.11;71.70;100069.53;4449298;32;20836;-74
2021/06/17 05:45:24;;;;;;;9.95;2.50;;;;;;;18.23;71.29;100074.03;4446159;32;20040;-74
2021/06/17 05:47:50;;;;;;;8.32;2.67;;;;;;;18.36;71.42;100079.28;4445367;32;20087;-75
2021/06/17 05:50:15;;;;;;;9.20;1.98;;;;;;;18.43;70.44;100081.69;4446779;32;20081;-75
2021/06/17 05:52:42;;;;;;;6.22;2.20;;;;;;;18.44;70.55;100086.88;4447627;32;20045;-75
2021/06/17 05:55:08;;;;;;;6.75;2.58;;;;;;;18.51;69.22;100085.63;4452376;32;20068;-74
2021/06/17 05:57:36;;;;;;;7.18;2.53;;;;;;;18.60;69.80;100076.88;4449625;32;20066;-74
2021/06/17 06:00:06;;;;;;;9.50;2.42;;;;;;;18.61;68.90;100082.06;4446513;32;20049;-75
2021/06/17 06:02:32;;;;;;;10.65;2.20;;;;;;;18.72;68.37;100084.22;4443630;32;20104;-74
2021/06/17 06:04:58;;;;;;;6.12;2.17;;;;;;;18.78;67.46;100085.03;4445576;32;20079;-75
2021/06/17 06:07:23;;;;;;;8.18;2.22;;;;;;;18.84;68.18;100082.97;4443491;32;20114;-74
2021/06/17 06:09:49;;;;;;;7.50;2.33;;;;;;;18.85;67.14;100091.03;4445872;32;20101;-75
2021/06/17 06:12:15;;;;;;;9.77;2.33;;;;;;;18.86;67.05;100086.88;4446201;32;20076;-74
2021/06/17 06:14:40;;;;;;;6.15;2.30;;;;;;;18.99;66.72;100090.03;4442283;32;20547;-76
2021/06/17 06:17:06;;;;;;;9.13;2.83;;;;;;;19.04;66.03;100089.28;4446785;32;20037;-75
2021/06/17 06:19:34;;;;;;;7.32;2.45;;;;;;;19.13;65.43;100091.13;4445159;32;20401;-75
2021/06/17 06:22:00;;;;;;;6.43;2.22;;;;;;;19.11;65.15;100093.69;4444741;32;20105;-76
2021/06/17 06:24:26;;;;;;;7.43;1.85;;;;;;;19.13;63.80;100093.97;4439517;32;20383;-75
2021/06/17 06:26:57;;;;;;;5.97;1.90;;;;;;;19.17;64.28;100097.34;4436122;32;20085;-76
2021/06/17 06:29:23;;;;;;;9.77;2.17;;;;;;;19.18;62.57;100105.41;4430557;32;20076;-75
2021/06/17 06:31:48;;;;;;;10.35;2.20;;;;;;;19.16;62.65;100107.22;4424352;32;20147;-75
2021/06/17 06:34:14;;;;;;;7.60;2.35;;;;;;;19.23;63.84;100116.06;4425742;32;20140;-75
2021/06/17 06:36:40;;;;;;;10.38;2.28;;;;;;;19.29;62.15;100124.66;4427264;32;20030;-75
2021/06/17 06:39:05;;;;;;;8.15;2.47;;;;;;;19.33;61.84;100123.13;4425623;32;20141;-75
2021/06/17 06:41:31;;;;;;;8.52;2.28;;;;;;;19.39;62.45;100126.00;4424697;32;20176;-76
2021/06/17 06:43:57;;;;;;;7.40;1.80;;;;;;;19.61;61.97;100121.13;4425772;32;20030;-76
2021/06/17 06:46:22;;;;;;;9.95;2.25;;;;;;;19.71;60.72;100130.25;4430334;32;20067;-76
2021/06/17 06:48:48;;;;;;;8.65;1.85;;;;;;;19.71;60.70;100131.03;4423173;32;20033;-75
2021/06/17 06:51:14;;;;;;;8.75;1.98;;;;;;;19.81;60.90;100128.69;4423791;32;20077;-74
2021/06/17 06:53:39;;;;;;;7.82;1.95;;;;;;;20.03;60.44;100128.72;4422622;32;21130;-75
2021/06/17 06:56:05;;;;;;;5.85;1.92;;;;;;;20.18;59.51;100129.28;4426514;32;20037;-77
2021/06/17 06:58:31;;;;;;;5.90;1.87;;;;;;;20.24;59.36;100129.25;4416151;32;20097;-77
2021/06/17 07:00:57;;;;;;;3.80;1.70;;;;;;;20.31;57.97;100131.63;4419932;32;20096;-75
2021/06/17 07:03:22;;;;;;;7.43;2.65;;;;;;;20.44;59.31;100129.00;4416165;32;20653;-76
2021/06/17 07:05:48;;;;;;;4.60;1.80;;;;;;;20.42;57.46;100132.37;4419800;32;20537;-75
2021/06/17 07:08:14;;;;;;;6.72;1.70;;;;;;;20.50;56.58;100139.16;4412806;32;20097;-76
2021/06/17 07:10:43;;;;;;;8.18;1.90;;;;;;;20.35;56.53;100147.22;4416349;32;20208;-75
2021/06/17 07:13:09;;;;;;;5.05;1.62;;;;;;;20.49;56.33;100153.97;4419454;32;20088;-75
2021/06/17 07:15:36;;;;;;;7.53;1.92;;;;;;;20.73;57.48;100151.31;4418338;32;20077;-75
2021/06/17 07:18:03;;;;;;;7.70;1.77;;;;;;;21.01;57.40;100163.47;4412956;32;20100;-76
2021/06/17 07:20:28;;;;;;;5.97;1.60;;;;;;;21.31;55.12;100165.22;4416435;32;20107;-76
2021/06/17 07:22:56;;;;;;;6.22;1.75;;;;;;;21.35;55.88;100165.72;4415264;32;20077;-76
2021/06/17 07:25:23;;;;;;;5.55;1.27;;;;;;;21.40;54.57;100169.88;4417592;32;20097;-74
2021/06/17 07:27:49;;;;;;;3.50;1.62;;;;;;;21.33;53.74;100170.41;4414698;32;20122;-74
2021/06/17 07:30:15;;;;;;;6.30;2.00;;;;;;;21.39;55.90;100174.78;4418528;32;20091;-74
2021/06/17 07:32:42;;;;;;;5.05;1.67;;;;;;;21.53;55.25;100167.97;4421066;32;20531;-75
2021/06/17 07:35:08;;;;;;;3.45;1.55;;;;;;;21.77;54.78;100161.63;4419338;32;20345;-77
2021/06/17 07:37:34;;;;;;;8.18;2.58;;;;;;;21.85;52.72;100164.72;4414053;32;20073;-75
2021/06/17 07:40:00;;;;;;;8.00;2.00;;;;;;;22.02;51.96;100169.03;4418191;32;20495;-76
2021/06/17 07:42:26;;;;;;;6.90;2.28;;;;;;;22.13;52.53;100163.22;4418086;32;20069;-74
2021/06/17 07:44:52;;;;;;;6.22;1.92;;;;;;;22.06;52.22;100180.97;4424325;32;20100;-75
2021/06/17 07:47:18;;;;;;;7.50;2.30;;;;;;;21.91;52.09;100176.91;4420723;32;20115;-75
2021/06/17 07:49:43;;;;;;;5.25;2.60;;;;;;;21.76;53.48;100176.47;4418988;32;20120;-73
2021/06/17 07:52:09;;;;;;;5.97;1.75;;;;;;;22.01;52.63;100166.69;4419411;32;20102;-75
2021/06/17 07:54:35;;;;;;;6.90;2.00;;;;;;;22.18;52.09;100165.25;4422319;32;20052;-75
2021/06/17 07:57:01;;;;;;;4.55;1.58;;;;;;;22.45;52.53;100177.81;4419469;32;20115;-79
2021/06/17 07:59:27;;;;;;;7.43;2.00;;;;;;;22.59;51.07;100185.28;4418779;32;20033;-76
2021/06/17 08:01:53;;;;;;;5.85;1.80;;;;;;;22.91;50.39;100186.25;4418855;32;20340;-77
2021/06/17 08:04:20;;;;;;;8.27;1.65;;;;;;;22.88;51.54;100181.59;4420046;32;20123;-78
2021/06/17 08:06:46;;;;;;;7.07;1.65;;;;;;;22.83;49.25;100191.06;4418739;32;20093;-76
2021/06/17 08:09:19;;;;;;;5.47;1.60;;;;;;;22.26;49.98;100189.16;4415736;32;20050;-77
2021/06/17 08:11:47;;;;;;;7.12;1.80;;;;;;;22.57;51.05;100205.88;4417121;32;20777;-76
2021/06/17 08:14:18;;;;;;;5.93;1.90;;;;;;;22.43;50.72;100197.66;4416109;32;20563;-74
2021/06/17 08:16:44;;;;;;;15.32;3.20;;;;;;;22.22;49.66;100202.22;4416362;32;20158;-78
2021/06/17 08:19:10;;;;;;;6.12;2.05;;;;;;;22.43;51.57;100198.41;4421485;32;20080;-77
2021/06/17 08:21:36;;;;;;;6.68;1.92;;;;;;;22.40;49.59;100198.72;4418332;32;20078;-78
2021/06/17 08:24:04;;;;;;;9.77;2.25;;;;;;;22.36;50.73;100206.84;4422261;32;20529;-75
2021/06/17 08:26:30;;;;;;;8.82;2.00;;;;;;;22.38;51.63;100207.06;4420929;32;20042;-76
2021/06/17 08:28:56;;;;;;;6.37;2.30;;;;;;;22.18;51.59;100216.09;4423567;32;20068;-75
2021/06/17 08:31:22;;;;;;;6.07;2.37;;;;;;;21.97;51.02;100226.38;4420442;32;20156;-76
2021/06/17 08:33:48;;;;;;;7.45;2.22;;;;;;;21.89;53.60;100223.28;4418768;32;20355;-75
2021/06/17 08:36:15;;;;;;;8.25;2.03;;;;;;;21.79;52.96;100227.78;4421170;32;20073;-77
2021/06/17 08:38:42;;;;;;;3.95;1.90;;;;;;;21.53;52.82;100222.38;4420402;32;20084;-74
2021/06/17 08:41:09;;;;;;;8.93;2.33;;;;;;;21.28;53.42;100225.59;4420089;32;20460;-76
2021/06/17 08:43:35;;;;;;;10.25;2.35;;;;;;;21.29;54.70;100222.19;4422628;32;20124;-74
2021/06/17 08:46:01;;;;;;;6.72;2.00;;;;;;;21.34;54.29;100214.91;4421275;32;20100;-74
2021/06/17 08:48:27;;;;;;;6.15;1.98;;;;;;;21.49;53.20;100227.63;4424130;32;20071;-75
2021/06/17 08:50:54;;;;;;;4.62;1.90;;;;;;;21.36;53.24;100227.37;4415717;32;20094;-76
2021/06/17 08:53:21;;;;;;;21.60;3.17;;;;;;;21.62;53.36;100222.09;4422569;32;20059;-75
2021/06/17 08:55:47;;;;;;;7.65;2.00;;;;;;;21.46;53.60;100220.06;4416686;32;20084;-76
2021/06/17 08:58:12;;;;;;;6.37;2.47;;;;;;;21.03;53.42;100227.47;4419076;32;20053;-77
2021/06/17 09:00:41;;;;;;;5.90;2.10;;;;;;;21.29;53.55;100213.63;4421418;32;20211;-77
2021/06/17 09:03:12;;;;;;;7.30;2.40;;;;;;;21.40;53.28;100218.53;4416550;32;20092;-75
2021/06/17 09:05:41;;;;;;;7.22;2.40;;;;;;;21.45;53.41;100212.78;4419255;32;20100;-76
2021/06/17 09:08:09;;;;;;;7.10;2.15;;;;;;;21.68;51.64;100216.31;4419256;32;20077;-75
2021/06/17 09:10:40;;;;;;;11.77;2.50;;;;;;;22.14;52.23;100210.63;4417005;32;20411;-76
2021/06/17 09:13:06;;;;;;;4.57;2.17;;;;;;;22.00;51.02;100222.44;4418214;32;20025;-75
2021/06/17 09:18:14;;;;;;;7.55;2.03;;;;;;;23.98;47.73;100220.53;4421605;31;690300;-75
2021/06/17 09:23:41;;;;;;;8.65;2.10;;;;;;;24.34;45.79;100236.22;4430395;32;676628;-77
2021/06/17 09:26:12;;;;;;;11.65;3.10;;;;;;;24.34;45.79;100236.22;4432981;32;20594;-78
2021/06/17 09:29:03;;;;;;;6.40;1.67;;;;;;;24.13;44.65;100226.59;4434461;32;20080;-75
2021/06/17 09:34:11;;;;;;;5.20;1.62;;;;;;;24.78;44.15;100232.63;4414471;31;684096;-75
2021/06/17 09:36:39;;;;;;;8.95;1.40;;;;;;;25.28;42.79;100237.50;4437925;32;20072;-76
2021/06/17 09:41:44;;;;;;;7.00;2.40;;;;;;;27.60;37.40;100243.56;4411442;31;1367937;-77
2021/06/17 09:44:31;;;;;;;7.35;1.67;;;;;;;27.60;37.40;100243.56;4448857;32;20490;-76
2021/06/17 09:47:18;;;;;;;6.22;1.77;;;;;;;27.77;37.15;100241.75;4449536;32;20087;-78
2021/06/17 09:49:46;;;;;;;9.25;1.92;;;;;;;28.34;36.29;100243.16;4447627;32;20056;-75
2021/06/17 09:52:13;;;;;;;6.18;1.92;;;;;;;28.30;36.23;100234.09;4451012;32;20068;-76
2021/06/17 09:54:40;;;;;;;4.35;1.67;;;;;;;28.62;35.48;100227.78;4449098;32;20072;-76
2021/06/17 09:57:09;;;;;;;6.32;1.80;;;;;;;27.83;36.66;100233.69;4450057;32;20323;-76
2021/06/17 10:02:16;;;;;;;3.97;1.77;;;;;;;27.92;37.03;100232.41;4421683;31;673537;-75
2021/06/17 10:04:42;;;;;;;11.30;2.45;;;;;;;27.69;37.19;100238.03;4431276;32;20076;-77
2021/06/17 10:07:09;;;;;;;8.55;1.95;;;;;;;27.59;36.00;100239.91;4430597;32;20468;-78
2021/06/17 10:09:35;;;;;;;4.82;1.58;;;;;;;27.09;36.76;100243.38;4429198;32;20076;-76
2021/06/17 10:12:01;;;;;;;6.53;2.00;;;;;;;27.19;36.86;100242.28;4429998;32;20080;-74
2021/06/17 10:14:28;;;;;;;6.90;2.30;;;;;;;27.07;37.90;100235.28;4426925;32;20135;-73
2021/06/17 10:16:55;;;;;;;5.60;1.80;;;;;;;27.34;36.63;100238.00;4427536;32;20204;-77
2021/06/17 10:19:21;;;;;;;8.57;1.90;;;;;;;27.42;35.96;100238.84;4431242;32;20041;-74
2021/06/17 10:21:48;;;;;;;5.05;1.80;;;;;;;27.62;36.72;100235.09;4429262;32;20096;-76
2021/06/17 10:24:18;;;;;;;7.53;1.80;;;;;;;27.60;36.25;100227.00;4433347;32;20133;-74
2021/06/17 10:26:48;;;;;;;4.70;1.85;;;;;;;27.58;36.06;100228.91;4430585;32;20082;-76
2021/06/17 10:29:36;;;;;;;6.53;1.70;;;;;;;27.45;36.34;100226.91;4432053;32;20508;-73
2021/06/17 10:32:03;;;;;;;6.93;1.83;;;;;;;27.87;35.56;100227.53;4431105;32;20041;-76
2021/06/17 10:34:34;;;;;;;9.07;1.73;;;;;;;28.40;35.24;100231.38;4430721;32;20105;-74
2021/06/17 10:40:05;;;;;;;5.57;2.00;;;;;;;30.46;31.67;100224.97;4423385;31;689269;-74
2021/06/17 10:42:34;;;;;;;7.47;2.53;;;;;;;30.46;31.67;100224.97;4430183;32;20371;-75
2021/06/17 10:45:05;;;;;;;5.00;1.83;;;;;;;30.56;31.45;100225.09;4431294;32;20053;-74
2021/06/17 10:52:53;;;;;;;5.55;1.33;;;;;;;30.88;29.91;100238.81;4412946;31;672477;-77
2021/06/17 10:55:21;;;;;;;5.35;1.85;;;;;;;31.42;29.38;100234.91;4431305;32;20038;-75
2021/06/17 11:21:41;;;;;;;6.80;2.08;;;;;;;33.64;25.35;100267.16;4409946;31;697625;-72
2021/06/17 11:26:45;;;;;;;;;;;;;;;34.99;23.94;100272.31;4397619;32;1380648;-73
2021/06/17 11:29:14;;;;;;;6.47;1.70;;;;;;;34.99;23.94;100272.31;4417672;32;20059;-72
2021/06/17 11:31:49;;;;;;;4.20;1.50;;;;;;;34.64;23.62;100271.19;4383062;32;20058;-74
2021/06/17 11:37:13;;;;;;;4.10;1.58;;;;;;;34.93;23.63;100283.56;4424395;31;664155;-72
2021/06/17 11:39:39;;;;;;;5.93;1.62;;;;;;;34.93;23.63;100283.56;4431295;32;20159;-73
2021/06/17 11:42:12;;;;;;;3.75;1.85;;;;;;;34.64;23.91;100279.94;4434128;32;20153;-72
2021/06/17 11:44:37;;;;;;;6.85;3.67;;;;;;;33.95;23.95;100277.69;4435356;32;20055;-75
2021/06/17 11:49:43;;;;;;;7.70;1.80;;;;;;;34.38;25.44;100281.69;4426647;31;676341;-74
2021/06/17 11:52:15;;;;;;;6.35;1.70;;;;;;;34.38;25.44;100281.69;4433904;32;20089;-78
2021/06/17 11:54:44;;;;;;;6.50;2.15;;;;;;;34.57;24.44;100280.91;4432103;32;20409;-73
2021/06/17 11:57:12;;;;;;;6.47;2.00;;;;;;;34.64;23.89;100277.03;4434572;32;20089;-76
2021/06/17 11:59:41;;;;;;;5.90;2.00;;;;;;;35.11;23.42;100276.12;4436056;32;20088;-73
2021/06/17 12:04:44;;;;;;;;;;;;;;;35.19;23.50;100288.41;4382963;32;1512034;-72
2021/06/17 12:07:11;;;;;;;10.52;2.22;;;;;;;35.19;23.50;100288.41;4415323;32;20329;-73
2021/06/17 12:09:38;;;;;;;7.68;1.62;;;;;;;34.39;23.92;100294.94;4416267;32;20093;-73
2021/06/17 12:12:24;;;;;;;6.25;1.77;;;;;;;34.67;24.10;100299.19;4413897;32;20101;-74
2021/06/17 12:17:31;;;;;;;;;;;;;;;35.01;23.36;100308.34;4396685;32;1392585;-75
2021/06/17 12:20:00;;;;;;;7.62;2.10;;;;;;;35.01;23.36;100308.34;4427108;32;19999;-73
2021/06/17 12:22:26;;;;;;;4.68;1.70;;;;;;;34.44;23.82;100305.50;4424100;32;20085;-73
2021/06/17 12:24:53;;;;;;;5.12;1.83;;;;;;;34.23;23.95;100319.94;4415745;32;20125;-76
2021/06/17 12:27:19;;;;;;;7.47;1.75;;;;;;;34.17;24.27;100310.72;4429766;32;20480;-75
2021/06/17 12:29:46;;;;;;;4.78;2.15;;;;;;;34.27;24.01;100312.25;4431618;32;20037;-76
2021/06/17 12:32:13;;;;;;;7.97;1.92;;;;;;;34.33;23.86;100318.56;4431403;32;20146;-74
2021/06/17 12:34:41;;;;;;;6.40;1.90;;;;;;;34.36;24.20;100314.44;4428436;32;20045;-73
2021/06/17 12:37:09;;;;;;;8.10;2.10;;;;;;;33.67;24.72;100316.34;4430441;32;20119;-74
2021/06/17 12:39:36;;;;;;;9.57;1.77;;;;;;;32.78;25.78;100316.38;4427037;32;20454;-74
2021/06/17 12:42:09;;;;;;;7.55;1.80;;;;;;;32.90;25.55;100320.31;4427486;32;20480;-75
2021/06/17 12:44:39;;;;;;;5.62;2.10;;;;;;;33.21;25.41;100318.47;4431537;32;20037;-73
2021/06/17 12:47:30;;;;;;;9.40;1.90;;;;;;;33.77;24.74;100322.19;4430282;32;20091;-75
2021/06/17 12:52:59;;;;;;;6.55;1.40;;;;;;;33.84;23.86;100328.06;4415409;31;735840;-73
2021/06/17 12:55:35;;;;;;;4.22;1.75;;;;;;;33.84;23.87;100324.22;4431728;32;20096;-74